createdAt,value
2022-08-20T00:02:21.192Z,3.28
2022-08-20T00:04:51.472Z,16.20
2022-08-20T00:07:21.721Z,10.23
2022-08-20T00:09:53.180Z,9.95
2022-08-20T00:12:23.435Z,5.80
2022-08-20T00:14:56.154Z,4.78
2022-08-20T00:17:31.800Z,6.03
2022-08-20T00:20:01.964Z,6.00
2022-08-20T00:22:32.266Z,6.13
2022-08-20T00:25:02.903Z,5.63
2022-08-20T00:27:33.924Z,6.75
2022-08-20T00:30:04.930Z,6.78
2022-08-20T00:32:46.316Z,5.80
2022-08-20T00:35:19.418Z,6.13
2022-08-20T00:38:00.379Z,7.68
2022-08-20T00:40:36.761Z,8.82
2022-08-20T00:43:26.223Z,7.68
2022-08-20T00:45:58.708Z,9.18
2022-08-20T00:48:35.043Z,9.23
2022-08-20T00:51:11.661Z,9.00
2022-08-20T00:53:44.917Z,8.18
2022-08-20T00:56:17.077Z,8.65
2022-08-20T00:58:51.486Z,9.02
2022-08-20T01:01:22.962Z,8.30
2022-08-20T01:03:57.489Z,8.32
2022-08-20T01:06:28.840Z,10.13
2022-08-20T01:09:02.313Z,6.63
2022-08-20T01:11:39.067Z,6.38
2022-08-20T01:14:28.553Z,5.22
2022-08-20T01:17:04.265Z,5.68
2022-08-20T01:19:41.996Z,5.07
2022-08-20T01:22:28.267Z,5.35
2022-08-20T01:25:12.126Z,5.88
2022-08-20T01:27:47.276Z,5.05
2022-08-20T01:30:23.738Z,5.80
2022-08-20T01:32:53.980Z,7.07
2022-08-20T01:35:27.110Z,6.35
2022-08-20T01:37:57.918Z,6.40
2022-08-20T01:41:10.830Z,7.18
2022-08-20T01:43:44.970Z,7.70
2022-08-20T01:46:16.934Z,8.13
2022-08-20T01:48:50.393Z,8.10
2022-08-20T01:51:26.547Z,9.27
2022-08-20T01:54:00.623Z,8.93
2022-08-20T01:56:34.730Z,8.60
2022-08-20T01:59:09.969Z,9.63
2022-08-20T02:01:46.155Z,8.23
2022-08-20T02:04:20.031Z,8.98
2022-08-20T02:06:56.675Z,7.85
2022-08-20T02:09:30.425Z,7.95
2022-08-20T02:12:03.034Z,7.05
2022-08-20T02:14:38.360Z,7.22
2022-08-20T02:17:09.288Z,7.50
2022-08-20T02:19:45.387Z,7.30
2022-08-20T02:22:26.510Z,7.05
2022-08-20T02:24:57.983Z,7.63
2022-08-20T02:27:28.307Z,7.82
2022-08-20T02:30:01.478Z,8.20
2022-08-20T02:32:33.940Z,7.32
2022-08-20T02:35:08.734Z,7.85
2022-08-20T02:37:40.219Z,7.80
2022-08-20T02:40:17.819Z,8.20
2022-08-20T02:42:58.092Z,8.68
2022-08-20T02:45:36.146Z,8.90
2022-08-20T02:48:08.081Z,9.00
2022-08-20T02:50:38.476Z,10.02
2022-08-20T02:53:08.746Z,9.75
2022-08-20T02:55:39.027Z,9.60
2022-08-20T02:58:09.259Z,10.65
2022-08-20T03:00:43.406Z,10.18
2022-08-20T03:03:15.334Z,9.85
2022-08-20T03:05:47.473Z,10.05
2022-08-20T03:08:19.144Z,9.30
2022-08-20T03:10:51.305Z,9.18
2022-08-20T03:13:23.648Z,8.85
2022-08-20T03:16:01.007Z,9.57
2022-08-20T03:18:38.068Z,8.73
2022-08-20T03:21:10.636Z,8.40
2022-08-20T03:23:46.215Z,8.52
2022-08-20T03:26:17.494Z,9.85
2022-08-20T03:28:49.337Z,8.98
2022-08-20T03:31:22.284Z,9.27
2022-08-20T03:33:53.343Z,10.27
2022-08-20T03:36:28.309Z,10.00
2022-08-20T03:39:00.617Z,10.20
2022-08-20T03:41:32.252Z,10.65
2022-08-20T03:44:02.614Z,10.30
2022-08-20T03:46:36.144Z,10.35
2022-08-20T03:49:06.922Z,10.48
2022-08-20T03:51:56.063Z,11.32
2022-08-20T03:54:31.743Z,11.00
2022-08-20T03:57:05.147Z,10.60
2022-08-20T03:59:43.173Z,10.88
2022-08-20T04:02:16.929Z,10.65
2022-08-20T04:04:47.197Z,10.60
2022-08-20T04:07:25.468Z,11.18
2022-08-20T04:09:57.057Z,11.32
2022-08-20T04:12:28.404Z,11.57
2022-08-20T04:15:02.183Z,11.18
2022-08-20T04:17:36.514Z,9.93
2022-08-20T04:20:12.599Z,10.85
2022-08-20T04:22:43.104Z,10.85
2022-08-20T04:25:29.877Z,10.88
2022-08-20T04:28:01.988Z,11.48
2022-08-20T04:30:33.473Z,12.02
2022-08-20T04:33:06.871Z,12.48
2022-08-20T04:35:37.247Z,11.57
2022-08-20T04:38:11.367Z,10.65
2022-08-20T04:40:54.000Z,11.63
2022-08-20T04:43:25.760Z,10.57
2022-08-20T04:45:57.808Z,9.68
2022-08-20T04:48:31.785Z,10.23
2022-08-20T04:51:03.984Z,11.50
2022-08-20T04:53:34.566Z,11.43
2022-08-20T04:56:07.432Z,12.98
2022-08-20T04:58:47.861Z,12.95
2022-08-20T05:01:18.678Z,12.90
2022-08-20T05:03:55.075Z,12.57
2022-08-20T05:06:29.009Z,11.55
2022-08-20T05:09:02.132Z,11.95
2022-08-20T05:11:36.756Z,13.30
2022-08-20T05:14:11.538Z,13.48
2022-08-20T05:16:43.377Z,13.10
2022-08-20T05:19:18.574Z,13.60
2022-08-20T05:21:48.868Z,12.95
2022-08-20T05:24:19.051Z,14.30
2022-08-20T05:26:49.268Z,12.48
2022-08-20T05:29:19.953Z,12.80
2022-08-20T05:31:50.127Z,12.55
2022-08-20T05:34:23.210Z,12.57
2022-08-20T05:36:55.332Z,15.30
2022-08-20T05:39:28.604Z,14.07
2022-08-20T05:41:59.258Z,14.50
2022-08-20T05:44:30.162Z,14.63
2022-08-20T05:47:02.047Z,15.10
2022-08-20T05:49:37.723Z,16.02
2022-08-20T05:52:09.728Z,14.93
2022-08-20T05:54:40.625Z,15.63
2022-08-20T05:57:11.284Z,13.13
2022-08-20T05:59:42.060Z,16.15
2022-08-20T06:02:32.888Z,16.08
2022-08-20T06:05:03.148Z,14.68
2022-08-20T06:07:33.261Z,16.80
2022-08-20T06:10:04.587Z,14.27
2022-08-20T06:12:35.339Z,15.55
2022-08-20T06:15:05.673Z,16.30
2022-08-20T06:17:39.566Z,14.45
2022-08-20T06:20:15.017Z,14.70
2022-08-20T06:22:46.397Z,15.70
2022-08-20T06:25:16.784Z,15.88
2022-08-20T06:27:47.781Z,15.55
2022-08-20T06:30:19.392Z,16.80
2022-08-20T06:32:51.305Z,15.05
2022-08-20T06:35:24.037Z,13.95
2022-08-20T06:37:54.844Z,14.57
2022-08-20T06:40:29.268Z,13.90
2022-08-20T06:43:02.813Z,14.15
2022-08-20T06:45:36.150Z,14.40
2022-08-20T06:48:15.136Z,13.95
2022-08-20T06:50:50.496Z,13.32
2022-08-20T06:53:23.772Z,12.90
2022-08-20T06:55:56.977Z,13.15
2022-08-20T06:58:36.697Z,12.02
2022-08-20T07:01:10.254Z,12.23
2022-08-20T07:03:42.275Z,12.30
2022-08-20T07:06:29.104Z,10.32
2022-08-20T07:08:59.978Z,9.77
2022-08-20T07:11:31.297Z,8.52
2022-08-20T07:14:25.488Z,8.90
2022-08-20T07:17:01.627Z,6.25
2022-08-20T07:20:04.007Z,6.95
2022-08-20T07:22:55.948Z,6.47
2022-08-20T07:25:27.446Z,5.95
2022-08-20T07:28:04.398Z,5.85
2022-08-20T07:30:56.105Z,5.03
2022-08-20T07:33:28.637Z,5.47
2022-08-20T07:36:00.740Z,4.05
2022-08-20T07:38:36.035Z,5.43
2022-08-20T07:41:15.198Z,5.15
2022-08-20T07:43:48.180Z,4.72
2022-08-20T07:46:23.716Z,5.32
2022-08-20T07:49:05.658Z,4.75
2022-08-20T07:51:36.757Z,5.40
2022-08-20T07:54:11.888Z,3.90
2022-08-20T07:56:43.323Z,4.93
2022-08-20T07:59:13.905Z,6.97
2022-08-20T08:01:44.050Z,6.38
2022-08-20T08:04:14.289Z,7.43
2022-08-20T08:06:44.893Z,6.78
2022-08-20T08:09:18.075Z,6.85
2022-08-20T08:11:52.480Z,6.32
2022-08-20T08:14:29.052Z,6.07
2022-08-20T08:17:04.502Z,8.23
2022-08-20T08:19:42.267Z,8.95
2022-08-20T08:22:17.335Z,10.95
2022-08-20T08:24:57.326Z,11.45
2022-08-20T08:27:32.769Z,10.05
2022-08-20T08:30:03.845Z,10.05
2022-08-20T08:32:37.199Z,9.93
2022-08-20T08:35:12.533Z,8.20
2022-08-20T08:37:42.679Z,8.73
2022-08-20T08:40:15.938Z,7.28
2022-08-20T08:42:56.151Z,7.82
2022-08-20T08:45:30.101Z,7.88
2022-08-20T08:48:04.083Z,7.72
2022-08-20T08:50:54.113Z,8.48
2022-08-20T08:53:33.516Z,7.53
2022-08-20T08:56:08.715Z,6.93
2022-08-20T08:58:40.167Z,7.30
2022-08-20T09:01:55.361Z,7.65
2022-08-20T09:04:08.164Z,5.90
2022-08-20T09:06:40.481Z,6.68
2022-08-20T09:09:21.474Z,8.50
2022-08-20T09:12:00.835Z,6.22
2022-08-20T09:14:31.385Z,7.00
2022-08-20T09:17:01.623Z,6.93
2022-08-20T09:19:32.090Z,6.88
2022-08-20T09:22:11.646Z,7.10
2022-08-20T09:24:44.971Z,7.53
2022-08-20T09:27:17.920Z,7.38
2022-08-20T09:29:49.254Z,8.40
2022-08-20T09:32:24.319Z,7.03
2022-08-20T09:34:59.951Z,6.95
2022-08-20T09:37:37.238Z,7.40
2022-08-20T09:40:21.367Z,7.40
2022-08-20T09:42:54.621Z,7.13
2022-08-20T09:45:25.771Z,7.60
2022-08-20T09:47:57.199Z,7.82
2022-08-20T09:50:30.837Z,7.50
2022-08-20T09:53:05.522Z,6.18
2022-08-20T09:55:41.415Z,6.82
2022-08-20T09:58:24.100Z,7.43
2022-08-20T10:00:56.946Z,5.32
2022-08-20T10:03:27.138Z,6.90
2022-08-20T10:05:57.278Z,9.13
2022-08-20T10:08:27.497Z,6.47
2022-08-20T10:10:59.107Z,7.25
2022-08-20T10:13:31.984Z,6.68
2022-08-20T10:16:03.478Z,6.72
2022-08-20T10:18:33.672Z,5.85
2022-08-20T10:21:06.368Z,5.57
2022-08-20T10:23:36.634Z,7.30
2022-08-20T10:26:08.016Z,7.13
2022-08-20T10:28:41.783Z,7.70
2022-08-20T10:31:14.903Z,7.55
2022-08-20T10:33:46.076Z,8.40
2022-08-20T10:36:20.180Z,9.98
2022-08-20T10:38:51.202Z,6.88
2022-08-20T10:41:22.407Z,7.50
2022-08-20T10:43:55.287Z,7.40
2022-08-20T10:46:25.463Z,8.45
2022-08-20T10:48:58.837Z,9.15
2022-08-20T10:51:32.648Z,6.95
2022-08-20T10:54:06.256Z,7.70
2022-08-20T10:56:42.545Z,5.95
2022-08-20T10:59:15.374Z,6.10
2022-08-20T11:01:45.664Z,5.40
2022-08-20T11:04:15.891Z,5.50
2022-08-20T11:06:46.145Z,8.80
2022-08-20T11:09:16.423Z,5.90
2022-08-20T11:11:46.628Z,6.72
2022-08-20T11:14:19.515Z,8.50
2022-08-20T11:16:49.709Z,8.23
2022-08-20T11:19:19.986Z,6.30
2022-08-20T11:21:50.182Z,7.60
2022-08-20T11:24:20.336Z,8.02
2022-08-20T11:26:53.424Z,6.93
2022-08-20T11:29:26.261Z,8.07
2022-08-20T11:31:56.557Z,9.85
2022-08-20T11:34:26.848Z,9.70
2022-08-20T11:36:57.337Z,10.27
2022-08-20T11:39:27.738Z,8.05
2022-08-20T11:41:58.080Z,8.02
2022-08-20T11:44:33.374Z,9.98
2022-08-20T11:47:04.285Z,8.52
2022-08-20T11:49:35.589Z,6.57
2022-08-20T11:52:06.484Z,8.23
2022-08-20T11:54:40.509Z,11.95
2022-08-20T11:57:20.827Z,7.60
2022-08-20T11:59:57.109Z,8.63
2022-08-20T12:02:28.050Z,13.38
2022-08-20T12:05:02.284Z,10.40
2022-08-20T12:07:32.630Z,13.05
2022-08-20T12:10:02.869Z,10.82
2022-08-20T12:12:33.112Z,11.65
2022-08-20T12:15:07.336Z,9.23
2022-08-20T12:17:38.645Z,11.40
2022-08-20T12:20:14.643Z,11.57
2022-08-20T12:22:46.056Z,9.38
2022-08-20T12:25:16.817Z,12.80
2022-08-20T12:27:47.096Z,10.43
2022-08-20T12:30:23.530Z,10.70
2022-08-20T12:32:54.067Z,12.50
2022-08-20T12:35:25.654Z,13.35
2022-08-20T12:37:56.403Z,10.95
2022-08-20T12:40:32.234Z,13.25
2022-08-20T12:43:03.719Z,12.38
2022-08-20T12:45:37.038Z,17.90
2022-08-20T12:48:11.587Z,10.75
2022-08-20T12:50:45.776Z,10.55
2022-08-20T12:53:16.046Z,13.20
2022-08-20T12:55:46.299Z,11.48
2022-08-20T12:58:16.592Z,14.07
2022-08-20T13:00:50.407Z,9.13
2022-08-20T13:03:23.390Z,11.52
2022-08-20T13:05:53.677Z,8.65
2022-08-20T13:08:23.913Z,8.73
2022-08-20T13:10:54.108Z,8.30
2022-08-20T13:13:24.318Z,9.05
2022-08-20T13:15:57.310Z,10.95
2022-08-20T13:18:27.584Z,10.63
2022-08-20T13:20:57.783Z,10.68
2022-08-20T13:23:28.040Z,11.75
2022-08-20T13:25:58.320Z,10.13
2022-08-20T13:28:30.325Z,9.07
2022-08-20T13:31:03.913Z,11.05
2022-08-20T13:33:34.100Z,11.32
2022-08-20T13:36:04.486Z,7.82
2022-08-20T13:38:34.640Z,9.60
2022-08-20T13:41:04.851Z,8.90
2022-08-20T13:43:35.132Z,11.77
2022-08-20T13:46:08.272Z,10.35
2022-08-20T13:48:38.556Z,8.52
2022-08-20T13:51:09.416Z,9.98
2022-08-20T13:53:39.600Z,10.05
2022-08-20T13:56:10.527Z,11.98
2022-08-20T13:58:40.738Z,8.65
2022-08-20T14:01:13.655Z,9.75
2022-08-20T14:03:47.919Z,10.10
2022-08-20T14:06:18.676Z,10.07
2022-08-20T14:08:48.953Z,9.68
2022-08-20T14:11:19.392Z,7.05
2022-08-20T14:13:49.567Z,10.75
2022-08-20T14:16:27.330Z,11.35
2022-08-20T14:18:58.030Z,9.90
2022-08-20T14:21:28.343Z,7.22
2022-08-20T14:23:58.500Z,9.40
2022-08-20T14:26:28.872Z,9.35
2022-08-20T14:28:59.059Z,8.15
2022-08-20T14:31:32.735Z,9.52
2022-08-20T14:34:02.899Z,6.28
2022-08-20T14:36:33.096Z,7.72
2022-08-20T14:39:03.274Z,6.80
2022-08-20T14:41:33.542Z,9.30
2022-08-20T14:44:04.404Z,8.68
2022-08-20T14:46:38.457Z,9.10
2022-08-20T14:49:08.666Z,8.27
2022-08-20T14:51:38.893Z,9.45
2022-08-20T14:54:09.140Z,8.07
2022-08-20T14:56:39.315Z,8.98
2022-08-20T14:59:09.545Z,11.00
2022-08-20T15:01:42.310Z,7.85
2022-08-20T15:04:12.508Z,8.05
2022-08-20T15:06:43.105Z,6.47
2022-08-20T15:09:16.531Z,9.77
2022-08-20T15:11:46.783Z,10.40
2022-08-20T15:14:19.523Z,7.55
2022-08-20T15:16:52.405Z,8.40
2022-08-20T15:19:22.728Z,8.13
2022-08-20T15:21:53.350Z,11.15
2022-08-20T15:24:23.544Z,7.60
2022-08-20T15:26:53.751Z,10.35
2022-08-20T15:29:24.032Z,6.43
2022-08-20T15:31:56.784Z,5.53
2022-08-20T15:34:32.920Z,5.95
2022-08-20T15:37:10.112Z,6.18
2022-08-20T15:39:41.319Z,5.28
2022-08-20T15:42:13.350Z,5.45
2022-08-20T15:44:45.735Z,5.20
2022-08-20T15:47:28.536Z,7.20
2022-08-20T15:50:09.090Z,11.73
2022-08-20T15:52:47.961Z,7.63
2022-08-20T15:55:19.532Z,6.13
2022-08-20T15:58:02.127Z,7.63
2022-08-20T16:00:43.095Z,5.72
2022-08-20T16:03:40.548Z,7.05
2022-08-20T16:06:19.383Z,5.28
2022-08-20T16:09:23.737Z,4.75
2022-08-20T16:12:03.155Z,8.65
2022-08-20T16:14:39.824Z,9.57
2022-08-20T16:17:18.660Z,8.70
2022-08-20T16:20:06.611Z,6.28
2022-08-20T16:22:37.618Z,5.80
2022-08-20T16:25:09.237Z,8.43
2022-08-20T16:27:52.139Z,10.98
2022-08-20T16:30:35.241Z,10.02
2022-08-20T16:33:17.137Z,7.32
2022-08-20T16:36:00.228Z,6.40
2022-08-20T16:38:43.609Z,8.27
2022-08-20T16:41:31.861Z,5.32
2022-08-20T16:44:12.372Z,6.32
2022-08-20T16:46:53.111Z,7.22
2022-08-20T16:49:32.619Z,6.43
2022-08-20T16:52:06.062Z,6.47
2022-08-20T16:54:36.372Z,9.55
2022-08-20T16:57:11.726Z,6.20
2022-08-20T17:00:11.116Z,6.22
2022-08-20T17:02:57.987Z,6.93
2022-08-20T17:05:42.933Z,6.30
2022-08-20T17:08:25.262Z,5.50
2022-08-20T17:11:03.293Z,6.97
2022-08-20T17:13:37.209Z,6.50
2022-08-20T17:16:23.804Z,6.88
2022-08-20T17:18:59.857Z,6.72
2022-08-20T17:21:39.144Z,5.72
2022-08-20T17:24:25.403Z,7.55
2022-08-20T17:27:03.922Z,5.07
2022-08-20T17:29:54.981Z,4.93
2022-08-20T17:32:32.124Z,7.40
2022-08-20T17:35:05.406Z,6.35
2022-08-20T17:37:41.924Z,7.25
2022-08-20T17:40:30.232Z,7.57
2022-08-20T17:43:07.923Z,5.60
2022-08-20T17:45:44.204Z,4.82
2022-08-20T17:48:22.804Z,7.30
2022-08-20T17:50:55.639Z,8.10
2022-08-20T17:53:31.301Z,5.47
2022-08-20T17:56:12.181Z,5.13
2022-08-20T17:58:54.594Z,5.07
2022-08-20T18:01:27.322Z,9.73
2022-08-20T18:03:57.671Z,5.97
2022-08-20T18:06:40.099Z,5.70
2022-08-20T18:09:21.072Z,8.10
2022-08-20T18:12:04.912Z,9.10
2022-08-20T18:15:01.608Z,5.50
2022-08-20T18:18:18.432Z,6.05
2022-08-20T18:21:23.371Z,5.00
2022-08-20T18:24:02.399Z,4.95
2022-08-20T18:26:44.336Z,6.30
2022-08-20T18:29:28.321Z,6.10
2022-08-20T18:32:02.117Z,5.55
2022-08-20T18:34:44.554Z,7.43
2022-08-20T18:37:29.518Z,5.85
2022-08-20T18:40:20.594Z,5.78
2022-08-20T18:42:51.514Z,5.43
2022-08-20T18:45:36.543Z,8.40
2022-08-20T18:48:08.318Z,6.45
2022-08-20T18:50:55.056Z,5.43
2022-08-20T18:53:34.150Z,6.93
2022-08-20T18:56:10.583Z,7.40
2022-08-20T18:59:00.489Z,6.43
2022-08-20T19:01:40.040Z,4.65
2022-08-20T19:04:27.937Z,7.60
2022-08-20T19:07:07.613Z,8.13
2022-08-20T19:10:36.538Z,5.65
2022-08-20T19:13:50.986Z,8.88
2022-08-20T19:16:33.829Z,7.20
2022-08-20T19:19:07.425Z,6.15
2022-08-20T19:21:42.427Z,8.15
2022-08-20T19:24:16.548Z,4.53
2022-08-20T19:26:53.090Z,5.80
2022-08-20T19:29:30.265Z,6.22
2022-08-20T19:32:02.951Z,7.70
2022-08-20T19:34:36.160Z,7.15
2022-08-20T19:37:34.994Z,7.70
2022-08-20T19:40:05.184Z,7.50
2022-08-20T19:42:45.809Z,8.43
2022-08-20T19:45:26.682Z,5.13
2022-08-20T19:48:14.790Z,9.40
2022-08-20T19:50:57.168Z,8.82
2022-08-20T19:53:33.844Z,5.57
2022-08-20T19:56:08.334Z,8.57
2022-08-20T19:58:39.213Z,7.07
2022-08-20T20:01:20.223Z,7.47
2022-08-20T20:04:16.725Z,6.03
2022-08-20T20:06:54.562Z,6.22
2022-08-20T20:09:29.371Z,8.13
2022-08-20T20:12:03.637Z,6.57
2022-08-20T20:14:37.016Z,7.28
2022-08-20T20:17:15.009Z,9.98
2022-08-20T20:19:53.433Z,8.30
2022-08-20T20:22:34.348Z,9.73
2022-08-20T20:25:25.098Z,6.20
2022-08-20T20:27:59.177Z,7.28
2022-08-20T20:30:36.298Z,7.80
2022-08-20T20:33:21.344Z,9.07
2022-08-20T20:36:12.743Z,6.57
2022-08-20T20:39:01.270Z,7.18
2022-08-20T20:41:32.994Z,7.95
2022-08-20T20:44:07.058Z,8.38
2022-08-20T20:46:41.270Z,8.20
2022-08-20T20:49:25.979Z,12.10
2022-08-20T20:52:02.016Z,9.38
2022-08-20T20:54:48.664Z,6.60
2022-08-20T20:57:36.408Z,7.22
2022-08-20T21:00:17.946Z,11.52
2022-08-20T21:02:49.839Z,13.27
2022-08-20T21:05:26.009Z,8.73
2022-08-20T21:08:01.133Z,10.15
2022-08-20T21:10:37.668Z,9.30
2022-08-20T21:13:09.653Z,9.13
2022-08-20T21:15:42.248Z,8.85
2022-08-20T21:18:13.664Z,11.00
2022-08-20T21:20:43.850Z,7.85
2022-08-20T21:23:14.215Z,9.48
2022-08-20T21:25:47.352Z,7.47
2022-08-20T21:28:17.543Z,8.55
2022-08-20T21:30:47.736Z,10.43
2022-08-20T21:33:28.306Z,12.82
2022-08-20T21:35:59.318Z,8.52
2022-08-20T21:38:29.610Z,8.55
2022-08-20T21:41:02.634Z,8.00
2022-08-20T21:43:34.213Z,10.82
2022-08-20T21:46:06.708Z,7.03
2022-08-20T21:48:38.956Z,14.23
2022-08-20T21:51:09.898Z,10.73
2022-08-20T21:53:40.213Z,11.05
2022-08-20T21:56:14.095Z,8.98
2022-08-20T21:58:53.770Z,13.98
2022-08-20T22:01:26.538Z,10.60
2022-08-20T22:03:56.927Z,9.70
2022-08-20T22:06:27.366Z,6.80
2022-08-20T22:09:00.040Z,8.48
2022-08-20T22:11:33.419Z,9.70
2022-08-20T22:14:04.637Z,9.88
2022-08-20T22:16:34.935Z,12.23
2022-08-20T22:19:05.337Z,10.77
2022-08-20T22:21:38.200Z,9.13
2022-08-20T22:24:11.950Z,7.88
2022-08-20T22:26:45.669Z,9.75
2022-08-20T22:29:16.084Z,12.65
2022-08-20T22:31:49.763Z,9.52
2022-08-20T22:34:24.125Z,7.78
2022-08-20T22:36:57.177Z,6.70
2022-08-20T22:39:27.612Z,8.55
2022-08-20T22:42:00.725Z,7.90
2022-08-20T22:44:31.010Z,9.45
2022-08-20T22:47:08.449Z,8.25
2022-08-20T22:49:42.016Z,8.88
2022-08-20T22:52:14.399Z,9.88
2022-08-20T22:54:45.520Z,8.65
2022-08-20T22:57:20.426Z,7.20
2022-08-20T22:59:57.875Z,9.30
2022-08-20T23:02:28.288Z,9.68
2022-08-20T23:04:59.798Z,9.10
2022-08-20T23:07:30.143Z,8.48
2022-08-20T23:10:00.487Z,9.07
2022-08-20T23:12:35.933Z,8.07
2022-08-20T23:15:07.875Z,8.60
2022-08-20T23:17:40.915Z,10.88
2022-08-20T23:20:17.045Z,9.68
2022-08-20T23:22:47.383Z,8.50
2022-08-20T23:25:21.367Z,11.27
2022-08-20T23:28:03.538Z,9.35
2022-08-20T23:30:35.302Z,6.82
2022-08-20T23:33:06.958Z,9.05
2022-08-20T23:35:40.839Z,6.50
2022-08-20T23:38:12.096Z,8.40
2022-08-20T23:40:43.234Z,8.25
2022-08-20T23:43:16.053Z,9.48
2022-08-20T23:45:46.360Z,10.10
2022-08-20T23:48:16.676Z,7.85
2022-08-20T23:50:46.916Z,8.60
2022-08-20T23:53:17.056Z,8.00
2022-08-20T23:55:49.372Z,9.45
2022-08-20T23:58:22.487Z,9.73
